createdAt,value
2019-05-01T00:00:16.031Z,18.27
2019-05-01T00:03:32.565Z,17.47
2019-05-01T00:06:39.798Z,19.97
2019-05-01T00:09:44.248Z,19.20
2019-05-01T00:12:48.717Z,16.80
2019-05-01T00:15:53.197Z,18.67
2019-05-01T00:18:57.419Z,18.40
2019-05-01T00:22:01.351Z,18.57
2019-05-01T00:25:05.971Z,20.27
2019-05-01T00:28:10.409Z,17.80
2019-05-01T00:31:14.484Z,17.27
2019-05-01T00:34:18.404Z,22.33
2019-05-01T00:37:22.621Z,20.80
2019-05-01T00:40:26.877Z,17.37
2019-05-01T00:43:30.997Z,17.83
2019-05-01T00:46:35.918Z,18.40
2019-05-01T00:49:40.102Z,16.20
2019-05-01T00:52:44.679Z,18.77
2019-05-01T00:55:59.216Z,18.27
2019-05-01T00:59:17.688Z,18.03
2019-05-01T01:02:42.886Z,17.73
2019-05-01T01:05:47.028Z,14.80
2019-05-01T01:08:50.947Z,17.90
2019-05-01T01:11:55.122Z,19.40
2019-05-01T01:14:59.276Z,14.67
2019-05-01T01:18:03.341Z,15.07
2019-05-01T01:21:07.820Z,19.47
2019-05-01T01:24:11.835Z,14.57
2019-05-01T01:27:16.767Z,16.63
2019-05-01T01:30:21.098Z,17.03
2019-05-01T01:33:25.522Z,17.73
2019-05-01T01:36:29.365Z,16.30
2019-05-01T01:39:33.759Z,15.30
2019-05-01T01:42:38.913Z,17.80
2019-05-01T01:45:47.008Z,16.30
2019-05-01T01:48:51.369Z,17.57
2019-05-01T01:51:56.054Z,15.93
2019-05-01T01:55:00.327Z,15.43
2019-05-01T01:58:05.275Z,14.77
2019-05-01T02:01:37.261Z,15.87
2019-05-01T02:04:51.814Z,16.83
2019-05-01T02:07:56.389Z,18.23
2019-05-01T02:11:00.379Z,18.53
2019-05-01T02:14:04.492Z,17.57
2019-05-01T02:17:08.655Z,17.07
2019-05-01T02:20:12.963Z,17.27
2019-05-01T02:23:16.885Z,19.37
2019-05-01T02:26:22.513Z,19.50
2019-05-01T02:29:33.080Z,19.30
2019-05-01T02:32:38.209Z,20.47
2019-05-01T02:35:43.819Z,22.73
2019-05-01T02:38:49.827Z,17.60
2019-05-01T02:41:55.116Z,18.83
2019-05-01T02:45:01.471Z,19.50
2019-05-01T02:48:05.970Z,17.87
2019-05-01T02:51:10.575Z,20.53
2019-05-01T02:54:17.927Z,20.23
2019-05-01T02:57:24.332Z,15.23
2019-05-01T03:00:28.742Z,18.83
2019-05-01T03:03:32.842Z,16.07
2019-05-01T03:06:38.676Z,16.83
2019-05-01T03:09:43.417Z,16.17
2019-05-01T03:12:50.926Z,17.93
2019-05-01T03:15:55.471Z,19.50
2019-05-01T03:19:02.032Z,17.17
2019-05-01T03:22:13.412Z,16.57
2019-05-01T03:25:18.472Z,15.37
2019-05-01T03:28:22.760Z,20.10
2019-05-01T03:31:26.869Z,16.97
2019-05-01T03:34:30.899Z,19.57
2019-05-01T03:37:35.857Z,16.27
2019-05-01T03:40:40.909Z,20.87
2019-05-01T03:43:45.066Z,17.73
2019-05-01T03:46:49.726Z,22.70
2019-05-01T03:49:54.018Z,16.13
2019-05-01T03:52:58.603Z,19.60
2019-05-01T03:56:03.298Z,19.03
2019-05-01T03:59:08.034Z,18.67
2019-05-01T04:02:34.063Z,19.00
2019-05-01T04:05:37.152Z,21.07
2019-05-01T04:08:41.956Z,20.57
2019-05-01T04:11:46.359Z,18.30
2019-05-01T04:14:50.809Z,22.37
2019-05-01T04:17:56.646Z,18.87
2019-05-01T04:21:01.369Z,17.53
2019-05-01T04:24:05.597Z,19.07
2019-05-01T04:27:11.926Z,17.37
2019-05-01T04:30:35.310Z,19.40
2019-05-01T04:33:40.929Z,18.80
2019-05-01T04:36:49.550Z,19.97
2019-05-01T04:39:53.545Z,18.33
2019-05-01T04:42:58.664Z,18.67
2019-05-01T04:46:02.739Z,21.20
2019-05-01T04:49:06.748Z,18.43
2019-05-01T04:52:11.023Z,22.10
2019-05-01T04:55:16.655Z,18.37
2019-05-01T04:58:21.280Z,19.07
2019-05-01T05:01:29.301Z,18.23
2019-05-01T05:04:34.781Z,20.33
2019-05-01T05:07:39.734Z,18.00
2019-05-01T05:10:44.131Z,19.00
2019-05-01T05:14:07.062Z,20.13
2019-05-01T05:17:15.993Z,22.43
2019-05-01T05:20:20.827Z,18.57
2019-05-01T05:23:25.103Z,19.83
2019-05-01T05:26:29.475Z,19.40
2019-05-01T05:29:34.027Z,18.83
2019-05-01T05:32:40.159Z,20.53
2019-05-01T05:35:46.329Z,23.20
2019-05-01T05:39:02.012Z,19.60
2019-05-01T05:42:06.244Z,19.67
2019-05-01T05:45:10.327Z,19.67
2019-05-01T05:48:14.581Z,18.03
2019-05-01T05:51:32.812Z,18.90
2019-05-01T05:54:58.960Z,23.93
2019-05-01T05:58:21.706Z,17.17
2019-05-01T06:01:54.096Z,16.80
2019-05-01T06:05:27.280Z,16.43
2019-05-01T06:08:34.385Z,17.40
2019-05-01T06:11:53.964Z,17.43
2019-05-01T06:15:28.700Z,17.30
2019-05-01T06:18:44.678Z,19.63
2019-05-01T06:22:11.662Z,14.87
2019-05-01T06:25:22.675Z,14.67
2019-05-01T06:28:29.710Z,15.60
2019-05-01T06:31:34.349Z,13.77
2019-05-01T06:34:38.771Z,18.00
2019-05-01T06:38:05.142Z,20.40
2019-05-01T06:41:09.162Z,18.43
2019-05-01T06:44:39.188Z,17.87
2019-05-01T06:47:49.024Z,16.53
2019-05-01T06:51:02.226Z,16.90
2019-05-01T06:54:11.369Z,15.83
2019-05-01T06:57:14.882Z,14.17
2019-05-01T07:00:19.510Z,14.80
2019-05-01T07:03:23.878Z,18.13
2019-05-01T07:06:30.946Z,15.00
2019-05-01T07:09:38.007Z,17.23
2019-05-01T07:12:42.799Z,15.97
2019-05-01T07:15:47.467Z,15.00
2019-05-01T07:18:53.513Z,16.70
2019-05-01T07:22:01.802Z,16.73
2019-05-01T07:25:05.296Z,17.97
2019-05-01T07:28:09.742Z,19.90
2019-05-01T07:31:15.640Z,18.13
2019-05-01T07:34:21.762Z,20.00
2019-05-01T07:37:27.742Z,20.40
2019-05-01T07:40:31.925Z,18.03
2019-05-01T07:44:13.507Z,18.97
2019-05-01T07:47:33.407Z,17.17
2019-05-01T07:50:38.032Z,17.23
2019-05-01T07:53:42.834Z,17.13
2019-05-01T07:56:46.861Z,17.27
2019-05-01T07:59:51.677Z,16.47
2019-05-01T08:02:56.024Z,15.30
2019-05-01T08:06:00.379Z,16.30
2019-05-01T08:09:06.615Z,18.33
2019-05-01T08:12:14.330Z,16.83
2019-05-01T08:15:17.597Z,22.27
2019-05-01T08:18:28.037Z,22.17
2019-05-01T08:21:56.973Z,20.83
2019-05-01T08:25:00.485Z,21.77
2019-05-01T08:28:20.135Z,22.47
2019-05-01T08:31:40.193Z,21.07
2019-05-01T08:34:49.040Z,22.80
2019-05-01T08:37:53.778Z,25.97
2019-05-01T08:40:56.913Z,29.43
2019-05-01T08:44:01.529Z,24.67
2019-05-01T08:47:15.659Z,26.70
2019-05-01T08:50:24.729Z,29.33
2019-05-01T08:53:26.698Z,28.50
2019-05-01T08:56:30.905Z,32.03
2019-05-01T08:59:34.840Z,26.67
2019-05-01T09:02:41.487Z,23.33
2019-05-01T09:05:45.200Z,25.93
2019-05-01T09:08:49.438Z,29.57
2019-05-01T09:11:54.728Z,25.30
2019-05-01T09:14:59.317Z,30.50
2019-05-01T09:18:03.243Z,18.37
2019-05-01T09:21:07.181Z,19.80
2019-05-01T09:24:11.518Z,19.90
2019-05-01T09:27:29.267Z,17.70
2019-05-01T09:30:36.734Z,19.00
2019-05-01T09:33:40.894Z,23.17
2019-05-01T09:36:44.901Z,20.90
2019-05-01T09:39:49.418Z,21.23
2019-05-01T09:42:54.743Z,21.53
2019-05-01T09:45:59.518Z,21.83
2019-05-01T09:49:03.783Z,19.83
2019-05-01T09:52:30.677Z,21.80
2019-05-01T09:55:48.502Z,20.47
2019-05-01T09:58:52.657Z,24.13
2019-05-01T10:01:56.678Z,20.97
2019-05-01T10:05:02.113Z,17.40
2019-05-01T10:08:06.945Z,22.90
2019-05-01T10:11:11.486Z,20.70
2019-05-01T10:14:15.703Z,19.80
2019-05-01T10:17:20.226Z,18.60
2019-05-01T10:20:24.253Z,19.53
2019-05-01T10:23:28.562Z,18.47
2019-05-01T10:26:34.413Z,20.23
2019-05-01T10:30:05.371Z,21.00
2019-05-01T10:33:14.819Z,19.67
2019-05-01T10:36:38.316Z,19.53
2019-05-01T10:39:42.176Z,19.43
2019-05-01T10:42:46.643Z,18.10
2019-05-01T10:45:50.844Z,17.33
2019-05-01T10:48:57.347Z,22.40
2019-05-01T10:52:13.662Z,18.43
2019-05-01T10:55:07.970Z,18.80
2019-05-01T10:58:12.683Z,16.53
2019-05-01T11:01:23.929Z,20.00
2019-05-01T11:04:28.449Z,16.83
2019-05-01T11:07:33.002Z,17.60
2019-05-01T11:10:36.841Z,19.53
2019-05-01T11:13:41.014Z,18.47
2019-05-01T11:16:44.855Z,15.13
2019-05-01T11:19:48.840Z,18.40
2019-05-01T11:22:52.866Z,16.23
2019-05-01T11:25:57.067Z,16.77
2019-05-01T11:29:01.483Z,16.20
2019-05-01T11:32:16.800Z,13.63
2019-05-01T11:35:43.324Z,14.53
2019-05-01T11:38:55.677Z,16.23
2019-05-01T11:42:04.240Z,13.57
2019-05-01T11:45:09.405Z,13.63
2019-05-01T11:48:13.636Z,17.73
2019-05-01T11:51:17.555Z,16.30
2019-05-01T11:54:21.484Z,13.63
2019-05-01T11:57:25.406Z,15.83
2019-05-01T12:00:29.411Z,13.37
2019-05-01T12:03:33.304Z,17.00
2019-05-01T12:06:37.819Z,15.00
2019-05-01T12:09:42.164Z,14.10
2019-05-01T12:12:46.461Z,15.17
2019-05-01T12:15:57.963Z,15.13
2019-05-01T12:19:02.064Z,13.57
2019-05-01T12:22:06.059Z,11.73
2019-05-01T12:25:10.309Z,14.90
2019-05-01T12:28:14.246Z,9.63
2019-05-01T12:31:18.480Z,14.50
2019-05-01T12:34:23.065Z,11.87
2019-05-01T12:37:32.793Z,15.20
2019-05-01T12:40:36.792Z,11.80
2019-05-01T12:43:40.735Z,12.53
2019-05-01T12:46:50.382Z,11.00
2019-05-01T12:49:54.717Z,12.90
2019-05-01T12:53:22.260Z,10.73
2019-05-01T12:56:35.133Z,11.00
2019-05-01T12:59:39.367Z,13.50
2019-05-01T13:02:43.576Z,15.77
2019-05-01T13:05:48.080Z,14.60
2019-05-01T13:08:52.169Z,12.27
2019-05-01T13:11:56.516Z,13.10
2019-05-01T13:15:00.364Z,12.10
2019-05-01T13:18:04.414Z,14.33
2019-05-01T13:21:08.558Z,13.63
2019-05-01T13:24:12.887Z,12.50
2019-05-01T13:27:21.879Z,13.03
2019-05-01T13:30:57.031Z,14.77
2019-05-01T13:34:00.970Z,12.57
2019-05-01T13:37:05.194Z,15.80
2019-05-01T13:40:10.185Z,12.77
2019-05-01T13:43:14.288Z,10.23
2019-05-01T13:46:18.568Z,9.60
2019-05-01T13:49:22.488Z,10.70
2019-05-01T13:52:27.222Z,14.20
2019-05-01T13:55:31.135Z,12.53
2019-05-01T13:58:35.245Z,12.93
2019-05-01T14:01:39.290Z,16.87
2019-05-01T14:04:43.893Z,14.27
2019-05-01T14:07:48.129Z,12.23
2019-05-01T14:10:52.316Z,13.67
2019-05-01T14:13:56.506Z,13.90
2019-05-01T14:17:00.964Z,11.63
2019-05-01T14:20:21.766Z,11.83
2019-05-01T14:24:00.190Z,12.83
2019-05-01T14:27:04.374Z,18.90
2019-05-01T14:30:11.606Z,14.30
2019-05-01T14:33:16.384Z,11.30
2019-05-01T14:36:20.376Z,13.63
2019-05-01T14:39:25.151Z,12.00
2019-05-01T14:42:29.158Z,12.47
2019-05-01T14:45:33.436Z,12.57
2019-05-01T14:48:37.363Z,11.23
2019-05-01T14:51:41.676Z,10.10
2019-05-01T14:54:46.017Z,12.93
2019-05-01T14:57:49.872Z,13.53
2019-05-01T15:00:54.231Z,10.63
2019-05-01T15:03:58.353Z,10.57
2019-05-01T15:07:02.785Z,11.93
2019-05-01T15:10:07.095Z,14.50
2019-05-01T15:13:26.882Z,15.23
2019-05-01T15:16:52.916Z,17.50
2019-05-01T15:20:01.793Z,10.37
2019-05-01T15:23:05.841Z,9.87
2019-05-01T15:26:10.199Z,14.07
2019-05-01T15:29:14.217Z,11.37
2019-05-01T15:32:18.125Z,9.67
2019-05-01T15:35:22.121Z,13.23
2019-05-01T15:38:26.347Z,9.67
2019-05-01T15:41:52.683Z,12.10
2019-05-01T15:44:57.252Z,11.00
2019-05-01T15:48:01.413Z,12.87
2019-05-01T15:51:05.814Z,11.13
2019-05-01T15:54:12.332Z,14.50
2019-05-01T15:57:16.870Z,10.73
2019-05-01T16:00:21.352Z,12.30
2019-05-01T16:03:25.607Z,11.50
2019-05-01T16:06:29.447Z,18.03
2019-05-01T16:09:33.498Z,13.00
2019-05-01T16:12:49.129Z,13.63
2019-05-01T16:15:53.648Z,12.23
2019-05-01T16:18:57.969Z,12.40
2019-05-01T16:22:01.928Z,11.23
2019-05-01T16:25:06.622Z,10.97
2019-05-01T16:28:10.551Z,14.73
2019-05-01T16:31:14.475Z,13.37
2019-05-01T16:34:18.665Z,10.50
2019-05-01T16:37:22.713Z,12.00
2019-05-01T16:40:36.858Z,11.67
2019-05-01T16:43:40.955Z,13.80
2019-05-01T16:46:45.158Z,11.17
2019-05-01T16:49:49.655Z,12.27
2019-05-01T16:52:53.922Z,15.97
2019-05-01T16:55:58.305Z,15.57
2019-05-01T16:59:02.215Z,15.40
2019-05-01T17:02:24.336Z,13.87
2019-05-01T17:05:52.657Z,17.30
2019-05-01T17:08:59.734Z,15.70
2019-05-01T17:12:03.784Z,15.10
2019-05-01T17:15:08.233Z,12.47
2019-05-01T17:18:12.840Z,13.73
2019-05-01T17:21:16.763Z,14.43
2019-05-01T17:24:21.118Z,13.87
2019-05-01T17:27:24.996Z,15.63
2019-05-01T17:30:41.597Z,12.37
2019-05-01T17:33:45.835Z,16.47
2019-05-01T17:36:49.847Z,18.33
2019-05-01T17:39:53.831Z,14.47
2019-05-01T17:42:57.870Z,26.27
2019-05-01T17:46:05.884Z,18.37
2019-05-01T17:49:09.274Z,17.27
2019-05-01T17:52:14.024Z,13.27
2019-05-01T17:55:18.264Z,14.10
2019-05-01T17:58:22.356Z,15.07
2019-05-01T18:01:44.474Z,17.13
2019-05-01T18:04:53.542Z,15.73
2019-05-01T18:07:57.455Z,13.10
2019-05-01T18:11:02.064Z,16.80
2019-05-01T18:14:06.202Z,11.47
2019-05-01T18:17:10.496Z,46.30
2019-05-01T18:20:14.684Z,28.43
2019-05-01T18:23:37.225Z,20.13
2019-05-01T18:27:06.360Z,17.37
2019-05-01T18:30:15.838Z,15.67
2019-05-01T18:33:22.042Z,15.10
2019-05-01T18:36:32.014Z,12.17
2019-05-01T18:39:38.094Z,16.20
2019-05-01T18:42:42.738Z,13.50
2019-05-01T18:45:55.004Z,18.10
2019-05-01T18:48:59.304Z,12.63
2019-05-01T18:52:03.900Z,17.60
2019-05-01T18:55:08.196Z,14.07
2019-05-01T18:58:12.750Z,13.90
2019-05-01T19:01:17.175Z,12.77
2019-05-01T19:04:23.552Z,17.83
2019-05-01T19:07:27.644Z,21.53
2019-05-01T19:10:31.638Z,21.50
2019-05-01T19:13:35.643Z,22.70
2019-05-01T19:16:44.631Z,21.93
2019-05-01T19:19:45.555Z,36.23
2019-05-01T19:22:49.514Z,26.97
2019-05-01T19:25:56.329Z,21.40
2019-05-01T19:28:59.800Z,16.50
2019-05-01T19:32:04.349Z,16.00
2019-05-01T19:35:09.161Z,18.70
2019-05-01T19:38:13.441Z,13.53
2019-05-01T19:41:17.406Z,16.80
2019-05-01T19:44:21.756Z,16.03
2019-05-01T19:47:26.058Z,15.40
2019-05-01T19:50:30.434Z,23.70
2019-05-01T19:53:35.063Z,18.40
2019-05-01T19:56:39.440Z,18.50
2019-05-01T19:59:44.073Z,14.13
2019-05-01T20:02:48.338Z,14.40
2019-05-01T20:05:52.811Z,15.17
2019-05-01T20:08:57.212Z,13.97
2019-05-01T20:12:01.409Z,19.37
2019-05-01T20:15:06.245Z,15.37
2019-05-01T20:18:10.668Z,16.47
2019-05-01T20:21:15.200Z,13.23
2019-05-01T20:24:19.620Z,15.10
2019-05-01T20:27:23.729Z,16.53
2019-05-01T20:30:28.111Z,13.67
2019-05-01T20:33:33.293Z,17.00
2019-05-01T20:36:38.156Z,16.30
2019-05-01T20:39:42.361Z,18.10
2019-05-01T20:42:46.275Z,15.50
2019-05-01T20:45:51.315Z,17.13
2019-05-01T20:48:55.973Z,17.43
2019-05-01T20:52:01.173Z,16.80
2019-05-01T20:55:05.404Z,14.17
2019-05-01T20:58:16.258Z,17.20
2019-05-01T21:01:24.226Z,14.50
2019-05-01T21:04:46.473Z,18.50
2019-05-01T21:07:58.320Z,18.63
2019-05-01T21:11:11.249Z,21.07
2019-05-01T21:14:20.035Z,19.53
2019-05-01T21:17:18.423Z,15.90
2019-05-01T21:20:23.552Z,15.50
2019-05-01T21:23:27.562Z,22.67
2019-05-01T21:26:33.556Z,15.10
2019-05-01T21:29:38.668Z,16.90
2019-05-01T21:32:44.342Z,15.63
2019-05-01T21:35:49.125Z,18.10
2019-05-01T21:38:53.051Z,18.20
2019-05-01T21:41:56.968Z,15.90
2019-05-01T21:45:01.268Z,15.37
2019-05-01T21:48:05.364Z,14.27
2019-05-01T21:51:09.500Z,15.03
2019-05-01T21:54:16.145Z,17.30
2019-05-01T21:57:19.295Z,17.23
2019-05-01T22:00:24.868Z,14.43
2019-05-01T22:03:29.841Z,16.50
2019-05-01T22:06:34.395Z,15.23
2019-05-01T22:09:38.668Z,14.43
2019-05-01T22:12:43.827Z,18.90
2019-05-01T22:15:53.959Z,21.20
2019-05-01T22:19:06.401Z,16.63
2019-05-01T22:22:19.821Z,17.17
2019-05-01T22:25:28.409Z,21.20
2019-05-01T22:28:42.286Z,16.63
2019-05-01T22:32:08.343Z,19.90
2019-05-01T22:35:16.863Z,19.30
2019-05-01T22:38:21.223Z,18.20
2019-05-01T22:41:25.085Z,16.13
2019-05-01T22:44:29.021Z,14.87
2019-05-01T22:47:33.360Z,17.67
2019-05-01T22:50:37.723Z,14.83
2019-05-01T22:53:42.005Z,19.67
2019-05-01T22:56:45.927Z,17.73
2019-05-01T22:59:49.888Z,14.67
2019-05-01T23:02:54.769Z,14.90
2019-05-01T23:06:01.976Z,15.87
2019-05-01T23:09:09.032Z,18.37
2019-05-01T23:12:13.267Z,15.20
2019-05-01T23:15:22.080Z,15.23
2019-05-01T23:18:26.334Z,18.37
2019-05-01T23:21:30.846Z,20.00
2019-05-01T23:24:35.164Z,18.17
2019-05-01T23:34:56.765Z,17.37
2019-05-01T23:38:01.030Z,18.47
2019-05-01T23:41:05.371Z,16.60
2019-05-01T23:44:09.315Z,17.03
2019-05-01T23:47:13.261Z,20.33
2019-05-01T23:50:17.862Z,19.90
2019-05-01T23:53:22.634Z,17.50
2019-05-01T23:56:31.120Z,15.40
2019-05-01T23:59:33.138Z,16.90
